createdAt,value
2022-11-17T00:00:24.076Z,99.90
2022-11-17T00:03:15.423Z,99.90
2022-11-17T00:06:07.206Z,99.90
2022-11-17T00:08:53.043Z,99.90
2022-11-17T00:11:57.154Z,99.90
2022-11-17T00:14:43.013Z,99.90
2022-11-17T00:17:28.529Z,99.90
2022-11-17T00:20:33.437Z,99.90
2022-11-17T00:23:18.805Z,99.90
2022-11-17T00:26:04.392Z,99.90
2022-11-17T00:28:54.712Z,99.90
2022-11-17T00:31:58.612Z,99.90
2022-11-17T00:34:44.320Z,99.90
2022-11-17T00:37:34.346Z,99.90
2022-11-17T00:40:19.837Z,99.90
2022-11-17T00:43:05.419Z,99.90
2022-11-17T00:45:51.044Z,99.90
2022-11-17T00:48:36.609Z,99.90
2022-11-17T00:51:22.307Z,99.90
2022-11-17T00:54:10.689Z,99.90
2022-11-17T00:56:56.490Z,99.90
2022-11-17T00:59:41.853Z,99.90
2022-11-17T01:02:27.219Z,99.90
2022-11-17T01:05:12.680Z,99.90
2022-11-17T01:07:59.267Z,99.90
2022-11-17T01:10:44.686Z,99.90
2022-11-17T01:13:30.505Z,99.90
2022-11-17T01:16:18.676Z,99.90
2022-11-17T01:19:04.530Z,99.90
2022-11-17T01:21:49.867Z,99.90
2022-11-17T01:24:35.441Z,99.90
2022-11-17T01:27:20.778Z,99.90
2022-11-17T01:30:06.708Z,99.90
2022-11-17T01:32:51.874Z,99.90
2022-11-17T01:35:37.492Z,99.90
2022-11-17T01:38:23.088Z,99.90
2022-11-17T01:41:25.234Z,99.90
2022-11-17T01:44:41.832Z,99.90
2022-11-17T01:47:42.551Z,99.90
2022-11-17T01:50:39.195Z,99.90
2022-11-17T01:53:26.213Z,99.90
2022-11-17T01:56:18.755Z,99.90
2022-11-17T01:59:10.091Z,99.90
2022-11-17T02:01:55.954Z,99.90
2022-11-17T02:04:47.301Z,99.90
2022-11-17T02:07:36.555Z,99.90
2022-11-17T02:10:22.427Z,99.90
2022-11-17T02:13:09.283Z,99.90
2022-11-17T02:15:54.902Z,99.90
2022-11-17T02:18:45.252Z,99.90
2022-11-17T02:21:34.084Z,99.90
2022-11-17T02:24:42.275Z,99.90
2022-11-17T02:27:56.964Z,99.90
2022-11-17T02:31:25.636Z,99.90
2022-11-17T02:34:34.402Z,99.90
2022-11-17T02:37:41.127Z,99.90
2022-11-17T02:40:43.761Z,99.90
2022-11-17T02:43:54.883Z,99.90
2022-11-17T02:46:51.992Z,99.90
2022-11-17T02:49:41.466Z,99.90
2022-11-17T02:52:28.681Z,99.90
2022-11-17T02:55:14.411Z,99.90
2022-11-17T02:58:00.001Z,99.90
2022-11-17T03:01:10.928Z,99.90
2022-11-17T03:04:40.121Z,99.90
2022-11-17T03:07:50.210Z,99.90
2022-11-17T03:10:50.593Z,99.90
2022-11-17T03:13:56.251Z,99.90
2022-11-17T03:16:55.259Z,99.90
2022-11-17T03:20:05.228Z,99.90
2022-11-17T03:22:53.727Z,99.90
2022-11-17T03:25:44.486Z,99.90
2022-11-17T03:28:32.724Z,99.90
2022-11-17T03:31:20.812Z,99.90
2022-11-17T03:34:12.454Z,99.90
2022-11-17T03:37:03.593Z,99.90
2022-11-17T03:39:54.260Z,99.90
2022-11-17T03:42:44.479Z,99.90
2022-11-17T03:45:42.476Z,99.90
2022-11-17T03:48:53.764Z,99.90
2022-11-17T03:51:39.011Z,99.90
2022-11-17T03:54:24.805Z,99.90
2022-11-17T03:57:20.862Z,99.90
2022-11-17T04:00:11.502Z,99.90
2022-11-17T04:03:00.710Z,99.90
2022-11-17T04:05:46.375Z,99.90
2022-11-17T04:08:31.881Z,99.90
2022-11-17T04:11:35.811Z,99.90
2022-11-17T04:14:39.706Z,99.90
2022-11-17T04:17:24.997Z,99.90
2022-11-17T04:20:10.842Z,99.90
2022-11-17T04:23:08.500Z,99.90
2022-11-17T04:26:14.672Z,99.90
2022-11-17T04:28:59.973Z,99.90
2022-11-17T04:31:45.305Z,99.90
2022-11-17T04:34:30.917Z,99.90
2022-11-17T04:37:19.317Z,99.90
2022-11-17T04:40:05.347Z,99.90
2022-11-17T04:42:50.490Z,99.90
2022-11-17T04:45:36.212Z,99.90
2022-11-17T04:48:21.486Z,99.90
2022-11-17T04:51:07.210Z,99.90
2022-11-17T04:53:52.962Z,99.90
2022-11-17T04:56:39.149Z,99.90
2022-11-17T04:59:24.827Z,99.90
2022-11-17T05:02:10.356Z,99.90
2022-11-17T05:04:56.001Z,99.90
2022-11-17T05:07:41.411Z,99.90
2022-11-17T05:10:53.063Z,99.90
2022-11-17T05:13:38.607Z,99.90
2022-11-17T05:16:43.367Z,99.90
2022-11-17T05:19:30.583Z,99.90
2022-11-17T05:22:37.125Z,99.90
2022-11-17T05:25:22.507Z,99.90
2022-11-17T05:28:08.009Z,99.90
2022-11-17T05:30:53.964Z,99.90
2022-11-17T05:33:40.386Z,99.90
2022-11-17T05:36:27.044Z,99.90
2022-11-17T05:39:14.064Z,99.90
2022-11-17T05:41:59.231Z,99.90
2022-11-17T05:44:45.058Z,99.90
2022-11-17T05:47:30.430Z,99.90
2022-11-17T05:50:16.094Z,99.90
2022-11-17T05:53:01.681Z,99.90
2022-11-17T05:55:47.113Z,99.90
2022-11-17T05:58:33.675Z,99.90
2022-11-17T06:01:20.484Z,99.90
2022-11-17T06:04:08.046Z,99.90
2022-11-17T06:06:59.049Z,99.90
2022-11-17T06:09:45.800Z,99.90
2022-11-17T06:12:31.124Z,99.90
2022-11-17T06:15:17.368Z,99.90
2022-11-17T06:18:14.223Z,99.90
2022-11-17T06:21:00.781Z,99.90
2022-11-17T06:23:48.049Z,99.90
2022-11-17T06:26:34.346Z,99.90
2022-11-17T06:29:20.226Z,99.90
2022-11-17T06:32:05.552Z,99.90
2022-11-17T06:34:55.730Z,99.90
2022-11-17T06:37:41.645Z,99.90
2022-11-17T06:40:27.879Z,99.90
2022-11-17T06:43:13.540Z,99.90
2022-11-17T06:46:04.804Z,99.90
2022-11-17T06:48:50.328Z,99.90
2022-11-17T06:51:38.862Z,99.90
2022-11-17T06:54:26.680Z,99.90
2022-11-17T06:57:11.890Z,99.90
2022-11-17T06:59:57.568Z,99.90
2022-11-17T07:02:43.164Z,99.90
2022-11-17T07:05:28.519Z,99.90
2022-11-17T07:08:14.605Z,99.90
2022-11-17T07:11:05.242Z,99.90
2022-11-17T07:13:50.694Z,99.90
2022-11-17T07:16:36.319Z,99.90
2022-11-17T07:19:21.792Z,99.90
2022-11-17T07:22:07.585Z,99.90
2022-11-17T07:24:52.892Z,99.90
2022-11-17T07:27:38.984Z,99.90
2022-11-17T07:30:24.491Z,99.90
2022-11-17T07:33:09.988Z,99.90
2022-11-17T07:35:56.217Z,99.90
2022-11-17T07:38:41.790Z,99.90
2022-11-17T07:41:27.174Z,99.90
2022-11-17T07:44:12.474Z,99.90
2022-11-17T07:46:57.824Z,99.90
2022-11-17T07:49:43.264Z,99.90
2022-11-17T07:52:28.501Z,99.90
2022-11-17T07:55:13.960Z,99.90
2022-11-17T07:58:01.432Z,99.90
2022-11-17T08:00:46.756Z,99.90
2022-11-17T08:03:32.297Z,99.90
2022-11-17T08:06:17.939Z,99.90
2022-11-17T08:09:03.567Z,99.90
2022-11-17T08:11:48.807Z,99.90
2022-11-17T08:14:34.295Z,99.90
2022-11-17T08:17:20.090Z,99.90
2022-11-17T08:20:06.056Z,99.90
2022-11-17T08:22:52.544Z,99.90
2022-11-17T08:25:38.233Z,99.90
2022-11-17T08:28:23.481Z,99.90
2022-11-17T08:31:09.132Z,99.90
2022-11-17T08:33:54.792Z,99.90
2022-11-17T08:36:40.317Z,99.90
2022-11-17T08:39:25.637Z,99.90
2022-11-17T08:42:11.202Z,99.90
2022-11-17T08:44:56.602Z,99.90
2022-11-17T08:47:42.156Z,99.90
2022-11-17T08:50:27.590Z,99.90
2022-11-17T08:53:21.448Z,99.50
2022-11-17T08:56:11.430Z,99.90
2022-11-17T08:58:56.872Z,99.40
2022-11-17T09:01:42.707Z,99.30
2022-11-17T09:04:27.911Z,99.90
2022-11-17T09:07:13.800Z,97.50
2022-11-17T09:10:00.143Z,95.80
2022-11-17T09:12:45.754Z,94.10
2022-11-17T09:15:33.142Z,96.70
2022-11-17T09:18:18.380Z,94.40
2022-11-17T09:21:08.900Z,94.40
2022-11-17T09:23:54.842Z,94.20
2022-11-17T09:26:41.075Z,95.70
2022-11-17T09:29:27.358Z,93.30
2022-11-17T09:32:13.489Z,92.60
2022-11-17T09:35:00.934Z,91.60
2022-11-17T09:37:46.569Z,92.70
2022-11-17T09:40:37.843Z,92.90
2022-11-17T09:43:30.157Z,91.30
2022-11-17T09:46:25.267Z,90.20
2022-11-17T09:49:37.093Z,89.80
2022-11-17T09:52:31.978Z,83.40
2022-11-17T09:55:22.628Z,88.50
2022-11-17T09:58:38.368Z,99.90
2022-11-17T10:01:27.365Z,99.90
2022-11-17T10:04:16.867Z,99.90
2022-11-17T10:07:03.976Z,99.90
2022-11-17T10:09:51.946Z,99.90
2022-11-17T10:12:47.699Z,99.90
2022-11-17T10:15:59.276Z,99.90
2022-11-17T10:18:44.563Z,99.90
2022-11-17T10:21:30.911Z,99.90
2022-11-17T10:24:36.035Z,99.90
2022-11-17T10:27:33.788Z,99.90
2022-11-17T10:30:25.452Z,99.90
2022-11-17T10:33:13.626Z,99.90
2022-11-17T10:35:59.434Z,99.90
2022-11-17T10:38:47.408Z,99.90
2022-11-17T10:41:40.492Z,99.90
2022-11-17T10:44:34.666Z,99.90
2022-11-17T10:47:30.997Z,99.90
2022-11-17T10:50:25.686Z,99.90
2022-11-17T10:53:46.012Z,99.90
2022-11-17T10:56:41.676Z,99.90
2022-11-17T10:59:32.672Z,99.90
2022-11-17T11:02:29.842Z,96.30
2022-11-17T11:05:18.324Z,88.10
2022-11-17T11:08:23.491Z,87.20
2022-11-17T11:11:34.859Z,83.10
2022-11-17T11:14:38.109Z,82.40
2022-11-17T11:17:28.588Z,78.10
2022-11-17T11:20:20.543Z,73.50
2022-11-17T11:23:32.159Z,61.60
2022-11-17T11:26:22.471Z,62.50
2022-11-17T11:29:17.038Z,61.70
2022-11-17T11:32:38.700Z,59.10
2022-11-17T11:35:39.201Z,60.60
2022-11-17T11:38:42.680Z,61.10
2022-11-17T11:41:49.112Z,56.10
2022-11-17T11:44:47.967Z,59.90
2022-11-17T11:48:02.776Z,61.20
2022-11-17T11:51:10.041Z,61.30
2022-11-17T11:54:02.187Z,55.30
2022-11-17T11:56:48.357Z,54.90
2022-11-17T11:59:50.713Z,58.60
2022-11-17T12:02:41.996Z,57.00
2022-11-17T12:05:53.364Z,61.10
2022-11-17T12:08:49.276Z,57.30
2022-11-17T12:11:56.804Z,56.40
2022-11-17T12:15:11.287Z,56.00
2022-11-17T12:18:05.959Z,57.80
2022-11-17T12:20:55.306Z,58.90
2022-11-17T12:23:56.189Z,57.40
2022-11-17T12:26:41.688Z,57.60
2022-11-17T12:29:30.794Z,57.10
2022-11-17T12:32:44.274Z,57.50
2022-11-17T12:35:37.048Z,58.70
2022-11-17T12:38:22.519Z,58.80
2022-11-17T12:41:08.684Z,58.50
2022-11-17T12:44:22.687Z,59.00
2022-11-17T12:47:20.227Z,59.40
2022-11-17T12:50:18.144Z,60.10
2022-11-17T12:53:09.452Z,59.50
2022-11-17T12:56:05.696Z,60.80
2022-11-17T12:59:15.740Z,60.50
2022-11-17T13:02:53.237Z,58.90
2022-11-17T13:05:38.777Z,60.90
2022-11-17T13:08:24.566Z,60.10
2022-11-17T13:11:17.687Z,55.90
2022-11-17T13:14:17.373Z,57.70
2022-11-17T13:17:03.712Z,57.00
2022-11-17T13:20:02.123Z,58.80
2022-11-17T13:23:19.757Z,60.40
2022-11-17T13:26:38.235Z,62.90
2022-11-17T13:29:24.290Z,63.00
2022-11-17T13:32:22.065Z,62.20
2022-11-17T13:35:21.902Z,64.30
2022-11-17T13:38:21.155Z,68.00
2022-11-17T13:41:06.899Z,71.50
2022-11-17T13:43:53.240Z,73.80
2022-11-17T13:46:38.968Z,75.50
2022-11-17T13:49:38.036Z,77.40
2022-11-17T13:52:40.473Z,81.00
2022-11-17T13:55:29.773Z,82.60
2022-11-17T13:58:26.702Z,85.50
2022-11-17T14:01:15.549Z,87.90
2022-11-17T14:04:20.150Z,87.00
2022-11-17T14:07:06.008Z,87.90
2022-11-17T14:10:31.697Z,82.00
2022-11-17T14:13:17.203Z,72.90
2022-11-17T14:16:02.366Z,71.30
2022-11-17T14:19:29.472Z,68.90
2022-11-17T14:22:22.375Z,68.20
2022-11-17T14:25:12.714Z,66.10
2022-11-17T14:27:58.306Z,63.10
2022-11-17T14:30:44.009Z,61.40
2022-11-17T14:33:29.539Z,60.40
2022-11-17T14:36:17.095Z,57.60
2022-11-17T14:39:03.347Z,57.90
2022-11-17T14:41:50.435Z,56.90
2022-11-17T14:44:35.723Z,55.40
2022-11-17T14:47:21.522Z,56.50
2022-11-17T14:50:08.616Z,56.00
2022-11-17T14:52:54.499Z,52.60
2022-11-17T14:55:40.015Z,54.30
2022-11-17T14:58:25.353Z,51.10
2022-11-17T15:01:24.216Z,52.20
2022-11-17T15:04:43.347Z,51.60
2022-11-17T15:07:21.605Z,52.60
2022-11-17T15:10:08.407Z,52.90
2022-11-17T15:12:53.866Z,52.10
2022-11-17T15:15:39.184Z,50.00
2022-11-17T15:18:24.523Z,52.00
2022-11-17T15:21:10.971Z,51.10
2022-11-17T15:23:56.381Z,52.40
2022-11-17T15:26:41.909Z,52.90
2022-11-17T15:29:27.620Z,52.60
2022-11-17T15:32:13.033Z,51.60
2022-11-17T15:34:58.573Z,52.20
2022-11-17T15:37:44.126Z,55.00
2022-11-17T15:40:29.406Z,55.00
2022-11-17T15:43:14.987Z,54.90
2022-11-17T15:46:05.450Z,56.00
2022-11-17T15:48:52.543Z,57.20
2022-11-17T15:51:37.933Z,57.20
2022-11-17T15:54:23.523Z,57.10
2022-11-17T15:57:09.056Z,58.40
2022-11-17T15:59:54.648Z,58.10
2022-11-17T16:02:42.124Z,59.90
2022-11-17T16:05:27.824Z,61.10
2022-11-17T16:08:13.406Z,62.20
2022-11-17T16:10:58.899Z,62.60
2022-11-17T16:13:44.237Z,62.60
2022-11-17T16:16:33.028Z,63.80
2022-11-17T16:19:19.083Z,64.30
2022-11-17T16:22:04.962Z,63.80
2022-11-17T16:24:50.604Z,63.50
2022-11-17T16:27:36.113Z,63.50
2022-11-17T16:30:21.399Z,63.80
2022-11-17T16:33:12.433Z,64.50
2022-11-17T16:36:05.337Z,66.80
2022-11-17T16:39:00.754Z,67.30
2022-11-17T16:41:47.535Z,68.10
2022-11-17T16:44:32.801Z,68.10
2022-11-17T16:47:18.269Z,69.10
2022-11-17T16:50:06.517Z,70.30
2022-11-17T16:52:52.009Z,69.20
2022-11-17T16:55:38.198Z,68.90
2022-11-17T16:58:23.593Z,70.00
2022-11-17T17:01:12.576Z,70.70
2022-11-17T17:04:08.667Z,72.40
2022-11-17T17:06:53.961Z,71.50
2022-11-17T17:09:39.448Z,71.50
2022-11-17T17:12:25.146Z,71.10
2022-11-17T17:15:10.874Z,70.80
2022-11-17T17:17:56.203Z,71.90
2022-11-17T17:20:50.585Z,72.20
2022-11-17T17:23:36.077Z,73.40
2022-11-17T17:26:22.940Z,73.60
2022-11-17T17:29:09.533Z,73.60
2022-11-17T17:31:55.341Z,77.70
2022-11-17T17:34:40.645Z,78.00
2022-11-17T17:37:25.963Z,79.50
2022-11-17T17:40:11.960Z,79.20
2022-11-17T17:42:57.471Z,80.20
2022-11-17T17:45:43.066Z,82.00
2022-11-17T17:48:31.155Z,83.70
2022-11-17T17:51:19.538Z,89.60
2022-11-17T17:54:05.998Z,93.40
2022-11-17T17:56:51.674Z,93.40
2022-11-17T17:59:36.811Z,94.80
2022-11-17T18:02:22.616Z,97.10
2022-11-17T18:05:08.455Z,97.90
2022-11-17T18:07:53.757Z,99.90
2022-11-17T18:10:39.272Z,99.90
2022-11-17T18:13:24.785Z,99.90
2022-11-17T18:16:15.795Z,99.90
2022-11-17T18:19:03.844Z,99.90
2022-11-17T18:21:49.222Z,99.90
2022-11-17T18:24:34.623Z,99.90
2022-11-17T18:27:20.182Z,99.90
2022-11-17T18:30:06.199Z,99.90
2022-11-17T18:32:51.570Z,99.90
2022-11-17T18:35:37.172Z,99.90
2022-11-17T18:38:22.917Z,99.90
2022-11-17T18:41:16.486Z,99.90
2022-11-17T18:44:02.090Z,99.90
2022-11-17T18:46:47.759Z,99.90
2022-11-17T18:49:34.584Z,99.90
2022-11-17T18:52:20.026Z,99.90
2022-11-17T18:55:06.022Z,99.90
2022-11-17T18:57:51.575Z,99.90
2022-11-17T19:00:36.967Z,99.90
2022-11-17T19:03:23.296Z,99.90
2022-11-17T19:06:10.271Z,99.90
2022-11-17T19:08:58.285Z,99.90
2022-11-17T19:11:44.061Z,99.90
2022-11-17T19:14:29.407Z,99.90
2022-11-17T19:17:14.992Z,99.90
2022-11-17T19:20:00.579Z,99.90
2022-11-17T19:22:45.947Z,99.90
2022-11-17T19:25:32.088Z,99.90
2022-11-17T19:28:17.783Z,99.90
2022-11-17T19:31:05.321Z,99.90
2022-11-17T19:33:51.228Z,99.90
2022-11-17T19:36:36.824Z,99.90
2022-11-17T19:39:22.464Z,99.90
2022-11-17T19:42:07.835Z,99.90
2022-11-17T19:44:53.169Z,99.90
2022-11-17T19:47:38.698Z,99.90
2022-11-17T19:50:24.033Z,99.90
2022-11-17T19:53:09.568Z,99.90
2022-11-17T19:55:57.112Z,99.90
2022-11-17T19:58:43.226Z,99.90
2022-11-17T20:01:30.305Z,99.90
2022-11-17T20:04:15.795Z,99.90
2022-11-17T20:07:01.281Z,99.90
2022-11-17T20:09:46.823Z,99.90
2022-11-17T20:12:34.506Z,99.90
2022-11-17T20:15:33.970Z,99.90
2022-11-17T20:18:20.185Z,99.90
2022-11-17T20:21:06.858Z,99.90
2022-11-17T20:23:53.576Z,99.90
2022-11-17T20:26:42.252Z,99.90
2022-11-17T20:29:27.746Z,99.90
2022-11-17T20:32:13.339Z,99.90
2022-11-17T20:34:59.131Z,99.90
2022-11-17T20:37:44.638Z,99.90
2022-11-17T20:40:31.884Z,99.90
2022-11-17T20:43:17.127Z,99.90
2022-11-17T20:46:03.416Z,99.90
2022-11-17T20:48:49.070Z,99.90
2022-11-17T20:51:35.042Z,99.90
2022-11-17T20:54:20.518Z,99.90
2022-11-17T20:57:06.230Z,99.90
2022-11-17T20:59:51.686Z,99.90
2022-11-17T21:02:37.359Z,99.90
2022-11-17T21:05:22.591Z,99.90
2022-11-17T21:08:08.325Z,99.90
2022-11-17T21:10:58.827Z,99.90
2022-11-17T21:13:44.384Z,99.90
2022-11-17T21:16:30.067Z,99.90
2022-11-17T21:19:17.255Z,99.90
2022-11-17T21:22:03.220Z,99.90
2022-11-17T21:24:48.491Z,99.90
2022-11-17T21:27:34.098Z,99.90
2022-11-17T21:30:19.910Z,99.90
2022-11-17T21:33:05.247Z,99.90
2022-11-17T21:35:50.843Z,99.90
2022-11-17T21:38:37.090Z,99.90
2022-11-17T21:41:25.452Z,99.90
2022-11-17T21:44:13.158Z,99.90
2022-11-17T21:46:58.337Z,99.90
2022-11-17T21:49:43.911Z,99.90
2022-11-17T21:52:29.415Z,99.90
2022-11-17T21:55:15.242Z,99.90
2022-11-17T21:58:00.655Z,99.90
2022-11-17T22:00:46.051Z,99.90
2022-11-17T22:03:31.816Z,99.90
2022-11-17T22:06:19.419Z,99.90
2022-11-17T22:09:05.041Z,99.90
2022-11-17T22:11:51.448Z,99.90
2022-11-17T22:14:36.856Z,99.90
2022-11-17T22:17:22.413Z,99.90
2022-11-17T22:20:09.395Z,99.90
2022-11-17T22:22:56.516Z,99.90
2022-11-17T22:25:46.024Z,99.90
2022-11-17T22:28:31.755Z,99.90
2022-11-17T22:31:17.315Z,99.90
2022-11-17T22:34:03.491Z,99.90
2022-11-17T22:36:49.100Z,99.90
2022-11-17T22:39:34.624Z,99.90
2022-11-17T22:42:20.246Z,99.90
2022-11-17T22:45:05.972Z,99.90
2022-11-17T22:47:51.293Z,99.90
2022-11-17T22:50:36.939Z,99.90
2022-11-17T22:53:22.230Z,99.90
2022-11-17T22:56:09.522Z,99.90
2022-11-17T22:58:59.458Z,99.90
2022-11-17T23:01:45.097Z,99.90
2022-11-17T23:04:30.654Z,99.90
2022-11-17T23:07:16.349Z,99.90
2022-11-17T23:10:01.605Z,99.90
2022-11-17T23:12:47.177Z,99.90
2022-11-17T23:15:32.636Z,99.90
2022-11-17T23:18:18.384Z,99.90
2022-11-17T23:21:09.246Z,99.90
2022-11-17T23:23:55.119Z,99.90
2022-11-17T23:26:41.761Z,99.90
2022-11-17T23:29:28.195Z,99.90
2022-11-17T23:32:13.411Z,99.90
2022-11-17T23:34:59.082Z,99.90
2022-11-17T23:37:44.759Z,99.90
2022-11-17T23:40:30.374Z,99.90
2022-11-17T23:43:15.651Z,99.90
2022-11-17T23:46:07.090Z,99.90
2022-11-17T23:48:52.766Z,99.90
2022-11-17T23:51:38.385Z,99.90
2022-11-17T23:54:24.070Z,99.90
2022-11-17T23:57:09.471Z,99.90
2022-11-17T23:59:55.111Z,99.90
